Time;durP1;ratioP1;P1;durP2;ratioP2;P2;SDS_P1;SDS_P2;PMS_P1;PMS_P2;Temp;Humidity;BMP_temperature;BMP_pressure;BME280_temperature;BME280_humidity;BME280_pressure;Samples;Min_cycle;Max_cycle;Signal;HPM_P1;HPM_P2
2023/10/17 00:01:32;;;;;;;;;;;;;;;-147.89;100.00;60788.38;4230882;28;19963;-64
2023/10/17 00:03:37;;;;;;;;;;;;;;;-147.89;100.00;60788.38;4230610;28;20364;-64
2023/10/17 00:05:41;;;;;;;;;;;;;;;-147.89;100.00;60788.38;4230645;28;19935;-64
2023/10/17 00:07:45;;;;;;;;;;;;;;;-147.89;100.00;60788.38;4231027;28;20263;-63
2023/10/17 00:09:48;;;;;;;;;;;;;;;-147.89;100.00;60788.38;4230644;28;19931;-63
2023/10/17 00:14:11;;;;;;;;;;;;;;;-147.89;100.00;60788.38;4230405;28;19930;-64
2023/10/17 00:16:13;;;;;;;;;;;;;;;-147.89;100.00;60788.38;4212461;28;19924;-63
2023/10/17 00:18:16;;;;;;;;;;;;;;;-147.89;100.00;60788.38;4230462;28;19923;-64
2023/10/17 00:20:18;;;;;;;;;;;;;;;-147.89;100.00;60788.38;4230516;28;19928;-64
2023/10/17 00:22:23;;;;;;;;;;;;;;;-147.89;100.00;60788.38;4212563;28;19976;-64
2023/10/17 00:24:25;;;;;;;;;;;;;;;-147.89;100.00;60788.38;4230467;28;19924;-64
2023/10/17 00:26:27;;;;;;;;;;;;;;;-147.89;100.00;60788.38;4230372;28;19934;-64
2023/10/17 00:28:30;;;;;;;;;;;;;;;-147.89;100.00;60788.38;4230049;28;19924;-64
2023/10/17 00:30:31;;;;;;;;;;;;;;;-147.89;100.00;60788.38;4230229;28;19928;-64
2023/10/17 00:32:40;;;;;;;;;;;;;;;-147.89;100.00;60788.38;4230486;28;19924;-64
2023/10/17 00:34:43;;;;;;;;;;;;;;;-147.89;100.00;60788.38;4230531;28;19931;-64
2023/10/17 00:36:49;;;;;;;;;;;;;;;-147.89;100.00;60788.38;4230197;28;19924;-63
2023/10/17 00:38:51;;;;;;;;;;;;;;;-147.89;100.00;60788.38;4230299;28;19959;-63
2023/10/17 00:40:53;;;;;;;;;;;;;;;-147.89;100.00;60788.38;4230546;28;20293;-64
2023/10/17 00:42:55;;;;;;;;;;;;;;;-147.89;100.00;60788.38;4230105;28;20006;-64
2023/10/17 00:44:58;;;;;;;;;;;;;;;-147.89;100.00;60788.38;4231597;28;20458;-64
2023/10/17 00:47:00;;;;;;;;;;;;;;;-147.89;100.00;60788.38;4233574;28;19931;-65
2023/10/17 00:49:05;;;;;;;;;;;;;;;-147.89;100.00;60788.38;4216248;28;20006;-64
2023/10/17 00:51:08;;;;;;;;;;;;;;;-147.89;100.00;60788.38;4233987;28;19931;-64
2023/10/17 00:53:11;;;;;;;;;;;;;;;-147.89;100.00;60788.38;4234021;28;20103;-65
2023/10/17 00:55:13;;;;;;;;;;;;;;;-147.89;100.00;60788.38;4215685;28;19924;-63
2023/10/17 00:57:15;;;;;;;;;;;;;;;-147.89;100.00;60788.38;4233384;28;20363;-64
2023/10/17 00:59:24;;;;;;;;;;;;;;;-147.89;100.00;60788.38;4233590;28;19924;-63
2023/10/17 01:01:27;;;;;;;;;;;;;;;-147.89;100.00;60788.38;4233427;28;19924;-63
2023/10/17 01:03:29;;;;;;;;;;;;;;;-147.89;100.00;60788.38;4233617;28;20448;-64
2023/10/17 01:05:40;;;;;;;;;;;;;;;-147.89;100.00;60788.38;4233541;28;19924;-63
2023/10/17 01:07:42;;;;;;;;;;;;;;;-147.89;100.00;60788.38;4233265;28;19924;-64
2023/10/17 01:09:47;;;;;;;;;;;;;;;-147.89;100.00;60788.38;4233627;28;20090;-64
2023/10/17 01:11:49;;;;;;;;;;;;;;;-147.89;100.00;60788.38;4233145;28;20315;-63
2023/10/17 01:13:54;;;;;;;;;;;;;;;-147.89;100.00;60788.38;4233157;28;19924;-65
2023/10/17 01:15:57;;;;;;;;;;;;;;;-147.89;100.00;60788.38;4233395;28;19927;-64
2023/10/17 01:18:08;;;;;;;;;;;;;;;-147.89;100.00;60788.38;4233128;28;19955;-64
2023/10/17 01:20:15;;;;;;;;;;;;;;;-147.89;100.00;60788.38;4233133;28;20353;-64
2023/10/17 01:22:16;;;;;;;;;;;;;;;-147.89;100.00;60788.38;4233068;28;19924;-64
2023/10/17 01:24:18;;;;;;;;;;;;;;;-147.89;100.00;60788.38;4232885;28;19927;-64
2023/10/17 01:26:29;;;;;;;;;;;;;;;-147.89;100.00;60788.38;4232797;28;20292;-64
2023/10/17 01:28:30;;;;;;;;;;;;;;;-147.89;100.00;60788.38;4233010;28;19931;-64
2023/10/17 01:30:32;;;;;;;;;;;;;;;-147.89;100.00;60788.38;4233073;28;19934;-64
2023/10/17 01:32:34;;;;;;;;;;;;;;;-147.89;100.00;60788.38;4232993;28;19967;-64
2023/10/17 01:34:37;;;;;;;;;;;;;;;-147.89;100.00;60788.38;4233120;28;19928;-64
2023/10/17 01:36:38;;;;;;;;;;;;;;;-147.89;100.00;60788.38;4233088;28;20355;-64
2023/10/17 01:38:42;;;;;;;;;;;;;;;-147.89;100.00;60788.38;4214850;28;19924;-64
2023/10/17 01:40:43;;;;;;;;;;;;;;;-147.89;100.00;60788.38;4232564;28;19924;-64
2023/10/17 01:42:45;;;;;;;;;;;;;;;-147.89;100.00;60788.38;4232907;28;19930;-65
2023/10/17 01:44:47;;;;;;;;;;;;;;;-147.89;100.00;60788.38;4232849;28;19998;-64
2023/10/17 01:46:49;;;;;;;;;;;;;;;-147.89;100.00;60788.38;4232804;28;20286;-63
2023/10/17 01:48:54;;;;;;;;;;;;;;;-147.89;100.00;60788.38;4232996;28;20022;-63
2023/10/17 01:50:55;;;;;;;;;;;;;;;-147.89;100.00;60788.38;4232706;28;19928;-64
2023/10/17 01:52:59;;;;;;;;;;;;;;;-147.89;100.00;60788.38;4232843;28;19923;-62
2023/10/17 01:55:08;;;;;;;;;;;;;;;-147.89;100.00;60788.38;4232421;28;19969;-64
2023/10/17 01:57:12;;;;;;;;;;;;;;;-147.89;100.00;60788.38;4232548;28;19946;-64
2023/10/17 01:59:17;;;;;;;;;;;;;;;-147.89;100.00;60788.38;4232662;28;19927;-63
2023/10/17 02:01:24;;;;;;;;;;;;;;;-147.89;100.00;60788.38;4232721;28;20405;-62
2023/10/17 02:03:26;;;;;;;;;;;;;;;-147.89;100.00;60788.38;4232645;28;19923;-64
2023/10/17 02:05:28;;;;;;;;;;;;;;;-147.89;100.00;60788.38;4232343;28;20393;-63
2023/10/17 02:07:30;;;;;;;;;;;;;;;-147.89;100.00;60788.38;4232072;28;19931;-64
2023/10/17 02:11:38;;;;;;;;;;;;;;;-147.89;100.00;60788.38;4232468;28;19924;-64
2023/10/17 02:13:41;;;;;;;;;;;;;;;-147.89;100.00;60788.38;4232497;28;20373;-64
2023/10/17 02:15:44;;;;;;;;;;;;;;;-147.89;100.00;60788.38;4232412;28;19924;-64
2023/10/17 02:17:51;;;;;;;;;;;;;;;-147.89;100.00;60788.38;4232029;28;19949;-64
2023/10/17 02:19:53;;;;;;;;;;;;;;;-147.89;100.00;60788.38;4232252;28;19978;-64
2023/10/17 02:21:55;;;;;;;;;;;;;;;-147.89;100.00;60788.38;4232086;28;20026;-64
2023/10/17 02:23:57;;;;;;;;;;;;;;;-147.89;100.00;60788.38;4213691;28;19924;-64
2023/10/17 02:26:00;;;;;;;;;;;;;;;-147.89;100.00;60788.38;4232225;28;19924;-64
2023/10/17 02:28:02;;;;;;;;;;;;;;;-147.89;100.00;60788.38;4232211;28;20342;-64
2023/10/17 02:30:04;;;;;;;;;;;;;;;-147.89;100.00;60788.38;4232202;28;19962;-65
2023/10/17 02:32:12;;;;;;;;;;;;;;;-147.89;100.00;60788.38;4231806;28;19931;-64
2023/10/17 02:34:13;;;;;;;;;;;;;;;-147.89;100.00;60788.38;4231903;28;19924;-64
2023/10/17 02:36:16;;;;;;;;;;;;;;;-147.89;100.00;60788.38;4232010;28;19989;-64
2023/10/17 02:38:17;;;;;;;;;;;;;;;-147.89;100.00;60788.38;4231762;28;19947;-64
2023/10/17 02:40:23;;;;;;;;;;;;;;;-147.89;100.00;60788.38;4231877;28;19928;-63
2023/10/17 02:42:24;;;;;;;;;;;;;;;-147.89;100.00;60788.38;4231933;28;19924;-64
2023/10/17 02:44:26;;;;;;;;;;;;;;;-147.89;100.00;60788.38;4232099;28;19928;-64
2023/10/17 02:46:28;;;;;;;;;;;;;;;-147.89;100.00;60788.38;4231670;28;19924;-63
2023/10/17 02:48:37;;;;;;;;;;;;;;;-147.89;100.00;60788.38;4231655;28;19967;-65
2023/10/17 02:52:42;;;;;;;;;;;;;;;-147.89;100.00;60788.38;4231246;28;19963;-63
2023/10/17 02:54:56;;;;;;;;;;;;;;;-147.89;100.00;60788.38;4231677;28;19974;-63
2023/10/17 02:56:58;;;;;;;;;;;;;;;-147.89;100.00;60788.38;4231726;28;20293;-62
2023/10/17 03:01:07;;;;;;;;;;;;;;;-147.89;100.00;60788.38;4231620;28;19928;-63
2023/10/17 03:03:12;;;;;;;;;;;;;;;-147.89;100.00;60788.38;4231534;28;19924;-65
2023/10/17 03:05:14;;;;;;;;;;;;;;;-147.89;100.00;60788.38;4231530;28;20401;-63
2023/10/17 03:07:16;;;;;;;;;;;;;;;-147.89;100.00;60788.38;4212200;28;20388;-65
2023/10/17 03:11:47;;;;;;;;;;;;;;;-147.89;100.00;60788.38;4231518;28;19930;-62
2023/10/17 03:13:49;;;;;;;;;;;;;;;-147.89;100.00;60788.38;4231290;28;19927;-65
2023/10/17 03:15:54;;;;;;;;;;;;;;;-147.89;100.00;60788.38;4231452;28;19927;-61
2023/10/17 03:18:00;;;;;;;;;;;;;;;-147.89;100.00;60788.38;4231400;28;20346;-61
2023/10/17 03:20:03;;;;;;;;;;;;;;;-147.89;100.00;60788.38;4231218;28;19963;-65
2023/10/17 03:22:24;;;;;;;;;;;;;;;-147.89;100.00;60788.38;4231025;28;20061;-65
2023/10/17 03:24:38;;;;;;;;;;;;;;;-147.89;100.00;60788.38;4230983;28;19993;-65
2023/10/17 03:26:40;;;;;;;;;;;;;;;-147.89;100.00;60788.38;4231096;28;20023;-66
2023/10/17 03:28:42;;;;;;;;;;;;;;;-147.89;100.00;60788.38;4231325;28;19955;-65
2023/10/17 03:30:43;;;;;;;;;;;;;;;-147.89;100.00;60788.38;4231064;28;20019;-65
2023/10/17 03:33:06;;;;;;;;;;;;;;;-147.89;100.00;60788.38;4231094;28;19946;-65
2023/10/17 03:35:10;;;;;;;;;;;;;;;-147.89;100.00;60788.38;4213103;28;20466;-65
2023/10/17 03:39:27;;;;;;;;;;;;;;;-147.89;100.00;60788.38;4231118;28;20413;-63
2023/10/17 03:41:29;;;;;;;;;;;;;;;-147.89;100.00;60788.38;4231330;28;20520;-63
2023/10/17 03:43:40;;;;;;;;;;;;;;;-147.89;100.00;60788.38;4230719;28;20018;-63
2023/10/17 03:45:57;;;;;;;;;;;;;;;-147.89;100.00;60788.38;4212983;28;19976;-63
2023/10/17 03:48:13;;;;;;;;;;;;;;;-147.89;100.00;60788.38;4230909;28;19934;-62
2023/10/17 03:50:43;;;;;;;;;;;;;;;-147.89;100.00;60788.38;4230571;28;19924;-63
2023/10/17 03:52:37;;;;;;;;;;;;;;;-147.89;100.00;60788.38;4230697;28;19969;-63
2023/10/17 03:54:39;;;;;;;;;;;;;;;-147.89;100.00;60788.38;4230847;28;19966;-64
2023/10/17 03:56:49;;;;;;;;;;;;;;;-147.89;100.00;60788.38;4230732;28;20397;-64
2023/10/17 03:59:16;;;;;;;;;;;;;;;-147.89;100.00;60788.38;4230839;28;20425;-62
2023/10/17 04:01:18;;;;;;;;;;;;;;;-147.89;100.00;60788.38;4230966;28;19924;-64
2023/10/17 04:05:33;;;;;;;;;;;;;;;-147.89;100.00;60788.38;4230429;28;20289;-63
2023/10/17 04:07:36;;;;;;;;;;;;;;;-147.89;100.00;60788.38;4230647;28;20293;-64
2023/10/17 04:09:52;;;;;;;;;;;;;;;-147.89;100.00;60788.38;4230764;28;19923;-64
2023/10/17 04:12:03;;;;;;;;;;;;;;;-147.89;100.00;60788.38;4231040;28;19924;-63
2023/10/17 04:14:08;;;;;;;;;;;;;;;-147.89;100.00;60788.38;4230658;28;19992;-62
2023/10/17 04:16:14;;;;;;;;;;;;;;;-147.89;100.00;60788.38;4230672;28;19924;-64
2023/10/17 04:18:17;;;;;;;;;;;;;;;-147.89;100.00;60788.38;4230154;28;19923;-63
2023/10/17 04:20:22;;;;;;;;;;;;;;;-147.89;100.00;60788.38;4230338;28;19969;-63
2023/10/17 04:22:29;;;;;;;;;;;;;;;-147.89;100.00;60788.38;4230727;28;19924;-62
2023/10/17 04:24:38;;;;;;;;;;;;;;;-147.89;100.00;60788.38;4230426;28;20397;-63
2023/10/17 04:26:45;;;;;;;;;;;;;;;-147.89;100.00;60788.38;4230557;28;19928;-63
2023/10/17 04:28:49;;;;;;;;;;;;;;;-147.89;100.00;60788.38;4230452;28;20018;-63
2023/10/17 04:30:56;;;;;;;;;;;;;;;-147.89;100.00;60788.38;4230926;28;19965;-63
2023/10/17 04:33:09;;;;;;;;;;;;;;;-147.89;100.00;60788.38;4230339;28;19930;-63
2023/10/17 04:35:11;;;;;;;;;;;;;;;-147.89;100.00;60788.38;4230030;28;19927;-63
2023/10/17 04:37:16;;;;;;;;;;;;;;;-147.89;100.00;60788.38;4230476;28;19924;-63
2023/10/17 04:39:19;;;;;;;;;;;;;;;-147.89;100.00;60788.38;4230295;28;19943;-62
2023/10/17 04:45:55;;;;;;;;;;;;;;;-147.89;100.00;60788.38;4230386;28;19927;-63
2023/10/17 04:50:40;;;;;;;;;;;;;;;-147.89;100.00;60788.38;4178187;28;19925;-63
2023/10/17 04:52:44;;;;;;;;;;;;;;;-147.89;100.00;60788.38;4178393;28;20012;-63
2023/10/17 04:54:47;;;;;;;;;;;;;;;-147.89;100.00;60788.38;4178017;28;19931;-63
2023/10/17 04:57:05;;;;;;;;;;;;;;;-147.89;100.00;60788.38;4178154;28;20397;-63
2023/10/17 04:59:08;;;;;;;;;;;;;;;-147.89;100.00;60788.38;4178190;28;19925;-62
2023/10/17 05:01:36;;;;;;;;;;;;;;;-147.89;100.00;60788.38;4178117;28;20011;-63
2023/10/17 05:03:50;;;;;;;;;;;;;;;-147.89;100.00;60788.38;4177868;28;20350;-63
2023/10/17 05:08:18;;;;;;;;;;;;;;;-147.89;100.00;60788.38;4178039;28;19964;-63
2023/10/17 06:18:33;;;;;;;;;;;;;;;-147.89;100.00;60788.38;4230942;28;19970;-63
2023/10/17 06:21:06;;;;;;;;;;;;;;;-147.89;100.00;60788.38;4232236;28;20375;-64
2023/10/17 06:23:23;;;;;;;;;;;;;;;-147.89;100.00;60788.38;4232233;28;19928;-63
2023/10/17 06:34:14;;;;;;;;;;;;;;;-147.89;100.00;60788.38;4231928;28;19939;-63
2023/10/17 06:36:25;;;;;;;;;;;;;;;-147.89;100.00;60788.38;4231832;28;20022;-64
2023/10/17 06:38:28;;;;;;;;;;;;;;;-147.89;100.00;60788.38;4232136;28;19924;-64
2023/10/17 06:40:37;;;;;;;;;;;;;;;-147.89;100.00;60788.38;4232089;28;19938;-63
2023/10/17 06:42:39;;;;;;;;;;;;;;;-147.89;100.00;60788.38;4230838;28;19970;-63
2023/10/17 06:44:54;;;;;;;;;;;;;;;-147.89;100.00;60788.38;4231636;28;19924;-64
2023/10/17 06:46:57;;;;;;;;;;;;;;;-147.89;100.00;60788.38;4231883;28;20300;-63
2023/10/17 06:49:04;;;;;;;;;;;;;;;-147.89;100.00;60788.38;4231853;28;20369;-63
2023/10/17 06:53:27;;;;;;;;;;;;;;;-147.89;100.00;60788.38;4231835;28;19924;-63
2023/10/17 06:55:29;;;;;;;;;;;;;;;-147.89;100.00;60788.38;4231730;28;19955;-64
2023/10/17 06:57:33;;;;;;;;;;;;;;;-147.89;100.00;60788.38;4231550;28;19924;-64
2023/10/17 06:59:35;;;;;;;;;;;;;;;-147.89;100.00;60788.38;4231205;28;19932;-64
2023/10/17 07:01:38;;;;;;;;;;;;;;;-147.89;100.00;60788.38;4213604;28;19992;-64
2023/10/17 07:03:45;;;;;;;;;;;;;;;-147.89;100.00;60788.38;4231610;28;19928;-64
2023/10/17 07:05:50;;;;;;;;;;;;;;;-147.89;100.00;60788.38;4231409;28;19931;-64
2023/10/17 07:07:57;;;;;;;;;;;;;;;-147.89;100.00;60788.38;4231483;28;20403;-64
2023/10/17 07:10:16;;;;;;;;;;;;;;;-147.89;100.00;60788.38;4231603;28;19958;-62
2023/10/17 07:12:19;;;;;;;;;;;;;;;-147.89;100.00;60788.38;4231443;28;19959;-63
2023/10/17 07:14:25;;;;;;;;;;;;;;;-147.89;100.00;60788.38;4231099;28;19942;-64
2023/10/17 07:16:33;;;;;;;;;;;;;;;-147.89;100.00;60788.38;4231438;28;19924;-64
2023/10/17 07:18:44;;;;;;;;;;;;;;;-147.89;100.00;60788.38;4231296;28;19996;-63
2023/10/17 07:23:32;;;;;;;;;;;;;;;-147.89;100.00;60788.38;4195891;28;20386;-64
2023/10/17 07:25:33;;;;;;;;;;;;;;;-147.89;100.00;60788.38;4195580;28;19963;-64
2023/10/17 07:27:35;;;;;;;;;;;;;;;-147.89;100.00;60788.38;4195462;28;20571;-64
2023/10/17 07:29:37;;;;;;;;;;;;;;;-147.89;100.00;60788.38;4195448;28;19924;-64
2023/10/17 07:31:38;;;;;;;;;;;;;;;-147.89;100.00;60788.38;4195627;28;19999;-62
2023/10/17 07:33:46;;;;;;;;;;;;;;;-147.89;100.00;60788.38;4195387;28;19974;-65
2023/10/17 07:35:59;;;;;;;;;;;;;;;-147.89;100.00;60788.38;4195505;28;20015;-64
2023/10/17 07:38:06;;;;;;;;;;;;;;;-147.89;100.00;60788.38;4195543;28;19967;-63
2023/10/17 07:42:15;;;;;;;;;;;;;;;-147.89;100.00;60788.38;4195259;28;20405;-64
2023/10/17 07:44:22;;;;;;;;;;;;;;;-147.89;100.00;60788.38;4195371;28;19966;-64
2023/10/17 07:46:26;;;;;;;;;;;;;;;-147.89;100.00;60788.38;4195624;28;19947;-64
2023/10/17 07:48:28;;;;;;;;;;;;;;;-147.89;100.00;60788.38;4195229;28;20012;-64
2023/10/17 07:50:32;;;;;;;;;;;;;;;-147.89;100.00;60788.38;4195447;28;20071;-64
2023/10/17 07:52:35;;;;;;;;;;;;;;;-147.89;100.00;60788.38;4195430;28;20015;-63
2023/10/17 07:54:45;;;;;;;;;;;;;;;-147.89;100.00;60788.38;4214952;28;20055;-64
2023/10/17 07:56:51;;;;;;;;;;;;;;;-147.89;100.00;60788.38;4230561;28;19923;-63
2023/10/17 07:59:30;;;;;;;;;;;;;;;-147.89;100.00;60788.38;4230939;28;19955;-63
2023/10/17 08:01:20;;;;;;;;;;;;;;;-147.89;100.00;60788.38;4228958;28;19924;-64
2023/10/17 08:03:27;;;;;;;;;;;;;;;-147.89;100.00;60788.38;4230861;28;19931;-56
2023/10/17 08:05:37;;;;;;;;;;;;;;;-147.89;100.00;60788.38;4230700;28;19963;-58
2023/10/17 08:07:38;;;;;;;;;;;;;;;-147.89;100.00;60788.38;4230659;28;19928;-68
2023/10/17 08:09:58;;;;;;;;;;;;;;;-147.89;100.00;60788.38;4230710;28;19928;-58
2023/10/17 08:12:03;;;;;;;;;;;;;;;-147.89;100.00;60788.38;4230259;28;19998;-61
2023/10/17 08:14:11;;;;;;;;;;;;;;;-147.89;100.00;60788.38;4231022;28;20201;-66
2023/10/17 08:16:24;;;;;;;;;;;;;;;-147.89;100.00;60788.38;4230520;28;19969;-57
2023/10/17 08:18:28;;;;;;;;;;;;;;;-147.89;100.00;60788.38;4230254;28;20030;-58
2023/10/17 08:20:45;;;;;;;;;;;;;;;-147.89;100.00;60788.38;4230317;28;19930;-58
2023/10/17 08:22:54;;;;;;;;;;;;;;;-147.89;100.00;60788.38;4230462;28;20022;-59
2023/10/17 08:24:59;;;;;;;;;;;;;;;-147.89;100.00;60788.38;4230159;28;19927;-58
2023/10/17 08:27:13;;;;;;;;;;;;;;;-147.89;100.00;60788.38;4230064;28;19924;-58
2023/10/17 08:29:20;;;;;;;;;;;;;;;-147.89;100.00;60788.38;4230405;28;19928;-58
2023/10/17 08:33:37;;;;;;;;;;;;;;;-147.89;100.00;60788.38;4230441;28;20420;-57
2023/10/17 08:35:39;;;;;;;;;;;;;;;-147.89;100.00;60788.38;4230584;28;19977;-58
2023/10/17 08:37:43;;;;;;;;;;;;;;;-147.89;100.00;60788.38;4230440;28;19959;-53
2023/10/17 08:41:50;;;;;;;;;;;;;;;-147.89;100.00;60788.38;4230570;28;19978;-51
2023/10/17 08:43:54;;;;;;;;;;;;;;;-147.89;100.00;60788.38;4230437;28;20011;-56
2023/10/17 08:45:58;;;;;;;;;;;;;;;-147.89;100.00;60788.38;4212284;28;19955;-58
2023/10/17 08:48:00;;;;;;;;;;;;;;;-147.89;100.00;60788.38;4230367;28;20346;-56
2023/10/17 08:50:05;;;;;;;;;;;;;;;-147.89;100.00;60788.38;4230394;28;19930;-61
2023/10/17 08:52:18;;;;;;;;;;;;;;;-147.89;100.00;60788.38;4230234;28;19927;-61
2023/10/17 08:54:20;;;;;;;;;;;;;;;-147.89;100.00;60788.38;4230022;28;19976;-59
2023/10/17 08:56:22;;;;;;;;;;;;;;;-147.89;100.00;60788.38;4230542;28;19962;-60
2023/10/17 08:58:32;;;;;;;;;;;;;;;-147.89;100.00;60788.38;4230141;28;20462;-60
2023/10/17 09:00:56;;;;;;;;;;;;;;;-147.89;100.00;60788.38;4230679;28;19924;-57
2023/10/17 09:03:00;;;;;;;;;;;;;;;-147.89;100.00;60788.38;4229486;28;19928;-65
2023/10/17 09:05:17;;;;;;;;;;;;;;;-147.89;100.00;60788.38;4230125;28;19928;-64
2023/10/17 09:07:31;;;;;;;;;;;;;;;-147.89;100.00;60788.38;4233646;28;19938;-66
2023/10/17 09:09:34;;;;;;;;;;;;;;;-147.89;100.00;60788.38;4248608;27;19930;-59
2023/10/17 09:11:41;;;;;;;;;;;;;;;-147.89;100.00;60788.38;4233345;28;19924;-57
2023/10/17 09:16:07;;;;;;;;;;;;;;;-147.89;100.00;60788.38;4233258;28;19935;-62
2023/10/17 09:18:09;;;;;;;;;;;;;;;-147.89;100.00;60788.38;4233058;28;19943;-64
2023/10/17 09:20:16;;;;;;;;;;;;;;;-147.89;100.00;60788.38;4232345;28;19927;-65
2023/10/17 09:22:21;;;;;;;;;;;;;;;-147.89;100.00;60788.38;4214975;28;19963;-66
2023/10/17 09:24:29;;;;;;;;;;;;;;;-147.89;100.00;60788.38;4214373;28;19924;-66
2023/10/17 09:26:42;;;;;;;;;;;;;;;-147.89;100.00;60788.38;4233005;28;19924;-65
2023/10/17 09:28:45;;;;;;;;;;;;;;;-147.89;100.00;60788.38;4232778;28;20088;-67
2023/10/17 09:31:03;;;;;;;;;;;;;;;-147.89;100.00;60788.38;4231837;28;19927;-66
2023/10/17 09:33:05;;;;;;;;;;;;;;;-147.89;100.00;60788.38;4232989;28;19924;-65
2023/10/17 09:35:10;;;;;;;;;;;;;;;-147.89;100.00;60788.38;4233046;28;19928;-67
2023/10/17 09:37:13;;;;;;;;;;;;;;;-147.89;100.00;60788.38;4232772;28;19924;-79
2023/10/17 09:39:18;;;;;;;;;;;;;;;-147.89;100.00;60788.38;4231372;28;19931;-68
2023/10/17 09:41:37;;;;;;;;;;;;;;;-147.89;100.00;60788.38;4232983;28;19923;-61
2023/10/17 09:43:41;;;;;;;;;;;;;;;-147.89;100.00;60788.38;4232883;28;19953;-61
2023/10/17 09:45:47;;;;;;;;;;;;;;;-147.89;100.00;60788.38;4232774;28;20289;-62
2023/10/17 09:47:53;;;;;;;;;;;;;;;-147.89;100.00;60788.38;4232708;28;19924;-62
2023/10/17 09:49:59;;;;;;;;;;;;;;;-147.89;100.00;60788.38;4232896;28;19959;-62
2023/10/17 09:52:02;;;;;;;;;;;;;;;-147.89;100.00;60788.38;4232466;28;19924;-62
2023/10/17 09:54:04;;;;;;;;;;;;;;;-147.89;100.00;60788.38;4232273;28;19924;-62
2023/10/17 09:56:12;;;;;;;;;;;;;;;-147.89;100.00;60788.38;4232600;28;19924;-59
2023/10/17 09:58:17;;;;;;;;;;;;;;;-147.89;100.00;60788.38;4232465;28;19969;-59
2023/10/17 10:00:27;;;;;;;;;;;;;;;-147.89;100.00;60788.38;4232652;28;20373;-59
2023/10/17 10:02:31;;;;;;;;;;;;;;;-147.89;100.00;60788.38;4232429;28;19977;-58
2023/10/17 10:04:35;;;;;;;;;;;;;;;-147.89;100.00;60788.38;4214869;28;19931;-61
2023/10/17 10:06:39;;;;;;;;;;;;;;;-147.89;100.00;60788.38;4232217;28;19928;-61
2023/10/17 10:08:40;;;;;;;;;;;;;;;-147.89;100.00;60788.38;4231959;28;20033;-61
2023/10/17 10:10:42;;;;;;;;;;;;;;;-147.89;100.00;60788.38;4232269;28;19923;-60
2023/10/17 10:13:13;;;;;;;;;;;;;;;-147.89;100.00;60788.38;4214303;28;20044;-61
2023/10/17 10:15:38;;;;;;;;;;;;;;;-147.89;100.00;60788.38;4218635;28;19931;-62
2023/10/17 10:17:46;;;;;;;;;;;;;;;-147.89;100.00;60788.38;4169947;28;20015;-74
2023/10/17 10:19:49;;;;;;;;;;;;;;;-147.89;100.00;60788.38;4168245;28;20024;-72
2023/10/17 10:21:53;;;;;;;;;;;;;;;-147.89;100.00;60788.38;4162889;28;19983;-70
2023/10/17 10:23:56;;;;;;;;;;;;;;;-147.89;100.00;60788.38;4162938;28;19929;-70
2023/10/17 10:26:19;;;;;;;;;;;;;;;-147.89;100.00;60788.38;4163389;28;20011;-70
2023/10/17 10:28:24;;;;;;;;;;;;;;;-147.89;100.00;60788.38;4162924;28;19975;-70
2023/10/17 10:30:38;;;;;;;;;;;;;;;-147.89;100.00;60788.38;4163406;28;20445;-69
2023/10/17 10:32:42;;;;;;;;;;;;;;;-147.89;100.00;60788.38;4163012;28;19936;-68
2023/10/17 10:34:45;;;;;;;;;;;;;;;-147.89;100.00;60788.38;4163147;28;20012;-68
2023/10/17 10:36:47;;;;;;;;;;;;;;;-147.89;100.00;60788.38;4162814;28;20460;-69
2023/10/17 10:38:49;;;;;;;;;;;;;;;-147.89;100.00;60788.38;4162968;28;19925;-69
2023/10/17 10:40:51;;;;;;;;;;;;;;;-147.89;100.00;60788.38;4163091;28;20345;-69
2023/10/17 10:42:54;;;;;;;;;;;;;;;-147.89;100.00;60788.38;4162802;28;19925;-72
2023/10/17 10:44:55;;;;;;;;;;;;;;;-147.89;100.00;60788.38;4152383;28;19932;-69
2023/10/17 10:46:57;;;;;;;;;;;;;;;-147.89;100.00;60788.38;4163175;28;20033;-69
2023/10/17 10:48:59;;;;;;;;;;;;;;;-147.89;100.00;60788.38;4162380;28;19929;-72
2023/10/17 10:51:01;;;;;;;;;;;;;;;-147.89;100.00;60788.38;4162624;28;19947;-70
2023/10/17 10:53:17;;;;;;;;;;;;;;;-147.89;100.00;60788.38;4162882;28;20403;-71
2023/10/17 10:55:18;;;;;;;;;;;;;;;-147.89;100.00;60788.38;4203329;28;19980;-69
2023/10/17 10:57:28;;;;;;;;;;;;;;;-147.89;100.00;60788.38;4231402;28;19930;-69
2023/10/17 10:59:29;;;;;;;;;;;;;;;-147.89;100.00;60788.38;4231290;28;20019;-69
2023/10/17 11:01:31;;;;;;;;;;;;;;;-147.89;100.00;60788.38;4228748;27;19977;-66
2023/10/17 11:03:38;;;;;;;;;;;;;;;-147.89;100.00;60788.38;4231407;28;19963;-67
2023/10/17 11:05:59;;;;;;;;;;;;;;;-147.89;100.00;60788.38;4220253;28;19992;-69
2023/10/17 11:08:00;;;;;;;;;;;;;;;-147.89;100.00;60788.38;4208493;28;19924;-66
2023/10/17 11:10:18;;;;;;;;;;;;;;;-147.89;100.00;60788.38;4229059;28;19923;-67
2023/10/17 11:12:20;;;;;;;;;;;;;;;-147.89;100.00;60788.38;4231123;28;19931;-68
2023/10/17 11:14:23;;;;;;;;;;;;;;;-147.89;100.00;60788.38;4231021;28;19929;-67
2023/10/17 11:16:29;;;;;;;;;;;;;;;-147.89;100.00;60788.38;4231117;28;20397;-65
2023/10/17 11:18:43;;;;;;;;;;;;;;;-147.89;100.00;60788.38;4230700;28;19924;-65
2023/10/17 11:20:53;;;;;;;;;;;;;;;-147.89;100.00;60788.38;4227753;28;20336;-66
2023/10/17 11:22:55;;;;;;;;;;;;;;;-147.89;100.00;60788.38;4230627;28;19924;-65
2023/10/17 11:24:57;;;;;;;;;;;;;;;-147.89;100.00;60788.38;4225606;28;19928;-67
2023/10/17 11:27:03;;;;;;;;;;;;;;;-147.89;100.00;60788.38;4230455;28;20384;-65
2023/10/17 11:29:06;;;;;;;;;;;;;;;-147.89;100.00;60788.38;4228059;28;19928;-66
2023/10/17 11:31:12;;;;;;;;;;;;;;;-147.89;100.00;60788.38;4219969;28;19974;-58
2023/10/17 11:33:18;;;;;;;;;;;;;;;-147.89;100.00;60788.38;4224147;28;19928;-64
2023/10/17 11:35:29;;;;;;;;;;;;;;;-147.89;100.00;60788.38;4229858;28;20038;-62
2023/10/17 11:37:34;;;;;;;;;;;;;;;-147.89;100.00;60788.38;4230728;28;20002;-65
2023/10/17 11:39:39;;;;;;;;;;;;;;;-147.89;100.00;60788.38;4229989;28;20309;-62
2023/10/17 11:41:53;;;;;;;;;;;;;;;-147.89;100.00;60788.38;4230516;28;19945;-57
2023/10/17 11:43:54;;;;;;;;;;;;;;;-147.89;100.00;60788.38;4226787;28;19924;-57
2023/10/17 11:45:56;;;;;;;;;;;;;;;-147.89;100.00;60788.38;4228991;28;20363;-58
2023/10/17 11:47:58;;;;;;;;;;;;;;;-147.89;100.00;60788.38;4227925;28;19927;-58
2023/10/17 11:50:05;;;;;;;;;;;;;;;-147.89;100.00;60788.38;4230008;28;20330;-68
2023/10/17 11:52:15;;;;;;;;;;;;;;;-147.89;100.00;60788.38;4219269;28;19976;-66
2023/10/17 11:54:22;;;;;;;;;;;;;;;-147.89;100.00;60788.38;4230137;28;19924;-63
2023/10/17 11:56:31;;;;;;;;;;;;;;;-147.89;100.00;60788.38;4227374;28;19935;-70
2023/10/17 11:58:34;;;;;;;;;;;;;;;-147.89;100.00;60788.38;4230092;28;20007;-65
2023/10/17 12:00:36;;;;;;;;;;;;;;;-147.89;100.00;60788.38;4228755;28;20343;-62
2023/10/17 12:02:41;;;;;;;;;;;;;;;-147.89;100.00;60788.38;4229611;28;20400;-59
2023/10/17 12:04:43;;;;;;;;;;;;;;;-147.89;100.00;60788.38;4228997;28;20010;-67
2023/10/17 12:06:49;;;;;;;;;;;;;;;-147.89;100.00;60788.38;4229408;28;19973;-62
2023/10/17 12:08:51;;;;;;;;;;;;;;;-147.89;100.00;60788.38;4228838;28;19938;-59
2023/10/17 12:10:54;;;;;;;;;;;;;;;-147.89;100.00;60788.38;4229094;28;20332;-55
2023/10/17 12:12:58;;;;;;;;;;;;;;;-147.89;100.00;60788.38;4229852;28;19977;-59
2023/10/17 12:15:01;;;;;;;;;;;;;;;-147.89;100.00;60788.38;4229838;28;20394;-57
2023/10/17 12:17:03;;;;;;;;;;;;;;;-147.89;100.00;60788.38;4229222;28;20589;-55
2023/10/17 12:19:05;;;;;;;;;;;;;;;-147.89;100.00;60788.38;4229234;28;20310;-56
2023/10/17 12:21:14;;;;;;;;;;;;;;;-147.89;100.00;60788.38;4228837;28;20453;-59
2023/10/17 12:23:18;;;;;;;;;;;;;;;-147.89;100.00;60788.38;4229774;28;19924;-57
2023/10/17 12:25:23;;;;;;;;;;;;;;;-147.89;100.00;60788.38;4229536;28;19927;-59
2023/10/17 12:27:25;;;;;;;;;;;;;;;-147.89;100.00;60788.38;4229378;28;20304;-58